createdAt,value
2019-01-30T00:01:26.037Z,10.73
2019-01-30T00:04:05.776Z,8.43
2019-01-30T00:06:39.074Z,10.47
2019-01-30T00:09:13.342Z,10.60
2019-01-30T00:11:46.690Z,8.47
2019-01-30T00:14:20.163Z,8.50
2019-01-30T00:16:53.529Z,8.90
2019-01-30T00:19:33.497Z,8.83
2019-01-30T00:22:06.801Z,8.57
2019-01-30T00:24:40.394Z,9.73
2019-01-30T00:27:13.978Z,9.57
2019-01-30T00:30:03.646Z,9.83
2019-01-30T00:32:28.776Z,9.03
2019-01-30T00:35:08.779Z,9.33
2019-01-30T00:37:42.084Z,9.37
2019-01-30T00:40:15.491Z,8.90
2019-01-30T00:42:48.806Z,10.10
2019-01-30T00:45:28.892Z,10.10
2019-01-30T00:48:02.301Z,9.73
2019-01-30T00:50:35.637Z,10.27
2019-01-30T00:53:11.850Z,9.50
2019-01-30T00:55:45.841Z,9.93
2019-01-30T00:58:19.310Z,10.47
2019-01-30T01:00:52.744Z,11.87
2019-01-30T01:03:26.042Z,11.07
2019-01-30T01:05:59.441Z,12.20
2019-01-30T01:08:32.810Z,10.77
2019-01-30T01:11:19.956Z,10.67
2019-01-30T01:13:54.132Z,10.07
2019-01-30T01:16:27.536Z,11.07
2019-01-30T01:19:00.974Z,11.73
2019-01-30T01:21:40.965Z,13.17
2019-01-30T01:24:14.281Z,12.07
2019-01-30T01:26:49.910Z,12.27
2019-01-30T01:29:23.403Z,11.33
2019-01-30T01:31:56.760Z,12.70
2019-01-30T01:34:30.059Z,10.90
2019-01-30T01:37:05.510Z,11.63
2019-01-30T01:39:42.888Z,12.77
2019-01-30T01:42:22.649Z,11.93
2019-01-30T01:44:59.386Z,11.37
2019-01-30T01:47:32.857Z,11.77
2019-01-30T01:50:06.511Z,11.50
2019-01-30T01:52:40.484Z,13.63
2019-01-30T01:55:14.059Z,12.43
2019-01-30T01:57:47.549Z,11.43
2019-01-30T02:00:34.990Z,11.77
2019-01-30T02:03:03.852Z,11.50
2019-01-30T02:05:37.123Z,11.67
2019-01-30T02:08:10.451Z,11.97
2019-01-30T02:10:53.108Z,11.27
2019-01-30T02:13:36.193Z,11.73
2019-01-30T02:16:09.522Z,11.40
2019-01-30T02:18:43.063Z,11.97
2019-01-30T02:21:16.537Z,12.43
2019-01-30T02:23:51.416Z,12.27
2019-01-30T02:26:25.847Z,12.10
2019-01-30T02:28:59.669Z,12.03
2019-01-30T02:31:36.224Z,12.73
2019-01-30T02:34:09.701Z,10.97
2019-01-30T02:36:58.601Z,11.07
2019-01-30T02:39:34.560Z,12.30
2019-01-30T02:42:08.038Z,13.27
2019-01-30T02:44:43.227Z,12.80
2019-01-30T02:47:16.167Z,12.73
2019-01-30T02:49:58.839Z,12.63
2019-01-30T02:52:33.124Z,11.57
2019-01-30T02:55:07.722Z,11.60
2019-01-30T02:57:42.600Z,12.90
2019-01-30T03:00:24.818Z,14.93
2019-01-30T03:02:59.304Z,13.60
2019-01-30T03:05:34.660Z,15.60
2019-01-30T03:08:18.967Z,12.10
2019-01-30T03:11:05.486Z,13.37
2019-01-30T03:13:40.897Z,14.20
2019-01-30T03:16:15.106Z,12.37
2019-01-30T03:18:51.052Z,12.07
2019-01-30T03:21:26.689Z,15.07
2019-01-30T03:24:00.711Z,13.60
2019-01-30T03:26:44.937Z,30.00
2019-01-30T03:29:20.096Z,14.00
2019-01-30T03:31:54.502Z,18.67
2019-01-30T03:34:39.381Z,14.03
2019-01-30T03:37:13.401Z,11.93
2019-01-30T03:39:50.648Z,16.83
2019-01-30T03:42:25.818Z,10.47
2019-01-30T03:45:06.309Z,11.60
2019-01-30T03:47:39.781Z,9.70
2019-01-30T03:50:13.999Z,10.43
2019-01-30T03:52:47.660Z,12.40
2019-01-30T03:55:22.340Z,12.97
2019-01-30T03:58:02.715Z,12.73
2019-01-30T04:00:36.066Z,12.20
2019-01-30T04:03:09.390Z,11.50
2019-01-30T04:05:46.003Z,12.67
2019-01-30T04:08:19.420Z,11.13
2019-01-30T04:10:52.812Z,17.57
2019-01-30T04:13:32.372Z,10.53
2019-01-30T04:16:05.685Z,15.17
2019-01-30T04:18:39.497Z,13.67
2019-01-30T04:21:12.970Z,13.33
2019-01-30T04:23:54.583Z,11.60
2019-01-30T04:26:28.069Z,9.63
2019-01-30T04:29:08.319Z,7.80
2019-01-30T04:31:41.698Z,11.20
2019-01-30T04:34:15.051Z,9.17
2019-01-30T04:36:48.628Z,10.37
2019-01-30T04:39:29.179Z,10.13
2019-01-30T04:42:02.501Z,10.97
2019-01-30T04:44:35.878Z,11.83
2019-01-30T04:47:09.175Z,14.30
2019-01-30T04:49:42.513Z,9.83
2019-01-30T04:52:15.834Z,9.30
2019-01-30T04:54:49.270Z,9.07
2019-01-30T04:57:22.586Z,9.47
2019-01-30T04:59:55.961Z,11.17
2019-01-30T05:02:29.208Z,11.23
2019-01-30T05:05:09.684Z,15.47
2019-01-30T05:07:44.806Z,16.77
2019-01-30T05:10:18.515Z,12.77
2019-01-30T05:12:51.977Z,10.03
2019-01-30T05:15:32.431Z,11.33
2019-01-30T05:18:05.811Z,13.67
2019-01-30T05:20:39.160Z,9.57
2019-01-30T05:23:12.518Z,15.47
2019-01-30T05:25:45.883Z,9.80
2019-01-30T05:28:19.134Z,10.30
2019-01-30T05:30:52.489Z,13.83
2019-01-30T05:33:25.761Z,11.93
2019-01-30T05:36:05.541Z,9.17
2019-01-30T05:38:45.932Z,8.30
2019-01-30T05:41:19.407Z,9.83
2019-01-30T05:43:52.664Z,10.13
2019-01-30T05:46:26.562Z,11.63
2019-01-30T05:48:59.873Z,10.57
2019-01-30T05:51:33.249Z,12.70
2019-01-30T05:54:06.522Z,13.00
2019-01-30T05:56:46.640Z,12.70
2019-01-30T05:59:19.890Z,9.63
2019-01-30T06:01:53.261Z,11.67
2019-01-30T06:04:26.549Z,12.20
2019-01-30T06:06:59.931Z,12.50
2019-01-30T06:09:33.228Z,10.33
2019-01-30T06:12:12.979Z,13.10
2019-01-30T06:14:46.257Z,11.17
2019-01-30T06:17:26.524Z,12.30
2019-01-30T06:19:59.898Z,12.80
2019-01-30T06:22:33.277Z,16.07
2019-01-30T06:25:06.589Z,14.37
2019-01-30T06:27:39.925Z,11.60
2019-01-30T06:30:14.886Z,15.27
2019-01-30T06:32:54.962Z,11.57
2019-01-30T06:35:28.264Z,10.47
2019-01-30T06:38:08.063Z,15.80
2019-01-30T06:40:48.441Z,15.93
2019-01-30T06:43:21.812Z,12.13
2019-01-30T06:45:55.078Z,12.77
2019-01-30T06:48:36.178Z,12.33
2019-01-30T06:51:09.440Z,12.70
2019-01-30T06:53:42.838Z,12.73
2019-01-30T06:56:16.565Z,14.40
2019-01-30T06:58:49.903Z,13.90
2019-01-30T07:01:23.225Z,12.40
2019-01-30T07:04:03.278Z,12.10
2019-01-30T07:06:36.538Z,12.50
2019-01-30T07:09:20.161Z,12.30
2019-01-30T07:11:53.763Z,12.50
2019-01-30T07:14:27.470Z,12.57
2019-01-30T07:17:01.119Z,12.80
2019-01-30T07:19:34.486Z,14.70
2019-01-30T07:22:07.821Z,12.03
2019-01-30T07:24:41.161Z,13.50
2019-01-30T07:27:14.428Z,12.40
2019-01-30T07:29:54.434Z,13.47
2019-01-30T07:32:28.170Z,16.97
2019-01-30T07:35:01.846Z,13.53
2019-01-30T07:37:35.253Z,13.67
2019-01-30T07:40:08.739Z,12.80
2019-01-30T07:42:49.448Z,12.87
2019-01-30T07:45:24.322Z,13.37
2019-01-30T07:47:58.038Z,13.63
2019-01-30T07:50:31.710Z,17.03
2019-01-30T07:53:05.470Z,13.73
2019-01-30T07:55:39.186Z,15.93
2019-01-30T07:58:12.616Z,19.17
2019-01-30T08:00:52.502Z,13.93
2019-01-30T08:03:25.887Z,14.60
2019-01-30T08:05:59.518Z,15.27
2019-01-30T08:08:33.051Z,13.97
2019-01-30T08:11:07.376Z,14.77
2019-01-30T08:13:41.742Z,16.53
2019-01-30T08:16:15.317Z,15.77
2019-01-30T08:18:48.869Z,15.37
2019-01-30T08:21:22.385Z,15.10
2019-01-30T08:23:55.956Z,16.43
2019-01-30T08:26:29.911Z,16.43
2019-01-30T08:29:04.118Z,17.20
2019-01-30T08:31:38.032Z,17.97
2019-01-30T08:34:11.657Z,18.97
2019-01-30T08:36:45.640Z,18.90
2019-01-30T08:39:19.449Z,22.20
2019-01-30T08:41:53.806Z,21.90
2019-01-30T08:44:34.357Z,19.10
2019-01-30T08:47:14.822Z,21.27
2019-01-30T08:49:48.167Z,21.37
2019-01-30T08:52:21.780Z,22.70
2019-01-30T08:54:55.326Z,22.73
2019-01-30T08:57:28.711Z,23.83
2019-01-30T09:00:02.073Z,21.60
2019-01-30T09:02:35.456Z,27.27
2019-01-30T09:05:09.458Z,21.57
2019-01-30T09:07:44.240Z,21.93
2019-01-30T09:10:20.097Z,21.33
2019-01-30T09:12:53.428Z,23.30
2019-01-30T09:15:27.758Z,23.67
2019-01-30T09:18:08.474Z,21.90
2019-01-30T09:20:41.762Z,22.57
2019-01-30T09:23:15.583Z,22.43
2019-01-30T09:25:49.033Z,25.87
2019-01-30T09:28:29.489Z,24.07
2019-01-30T09:31:02.941Z,25.60
2019-01-30T09:33:36.556Z,24.07
2019-01-30T09:36:10.598Z,25.30
2019-01-30T09:38:51.683Z,24.73
2019-01-30T09:41:25.193Z,25.47
2019-01-30T09:43:58.834Z,25.87
2019-01-30T09:46:32.850Z,27.17
2019-01-30T09:49:06.606Z,27.10
2019-01-30T09:51:40.134Z,26.73
2019-01-30T09:54:14.032Z,24.70
2019-01-30T09:56:47.989Z,24.23
2019-01-30T09:59:21.757Z,25.67
2019-01-30T10:01:55.730Z,30.47
2019-01-30T10:04:36.427Z,24.30
2019-01-30T10:07:10.444Z,28.13
2019-01-30T10:09:44.499Z,24.63
2019-01-30T10:12:18.354Z,25.80
2019-01-30T10:14:52.181Z,25.30
2019-01-30T10:17:26.251Z,27.07
2019-01-30T10:20:06.716Z,27.63
2019-01-30T10:22:40.621Z,27.60
2019-01-30T10:25:14.185Z,27.17
2019-01-30T10:27:48.022Z,29.13
2019-01-30T10:30:25.063Z,31.30
2019-01-30T10:32:59.036Z,28.77
2019-01-30T10:35:39.024Z,28.20
2019-01-30T10:38:12.407Z,25.73
2019-01-30T10:40:45.780Z,26.03
2019-01-30T10:43:19.168Z,25.90
2019-01-30T10:45:53.380Z,25.73
2019-01-30T10:48:36.462Z,25.40
2019-01-30T10:51:09.300Z,26.83
2019-01-30T10:53:42.669Z,28.77
2019-01-30T10:56:16.579Z,28.13
2019-01-30T10:58:50.268Z,26.70
2019-01-30T11:01:23.793Z,28.90
2019-01-30T11:03:57.687Z,29.37
2019-01-30T11:06:31.309Z,31.17
2019-01-30T11:09:05.028Z,30.07
2019-01-30T11:11:38.443Z,27.57
2019-01-30T11:14:11.812Z,29.03
2019-01-30T11:16:45.335Z,27.40
2019-01-30T11:19:18.785Z,28.07
2019-01-30T11:21:52.345Z,29.63
2019-01-30T11:24:25.667Z,28.77
2019-01-30T11:26:59.105Z,27.97
2019-01-30T11:29:33.097Z,26.53
2019-01-30T11:32:06.481Z,28.73
2019-01-30T11:34:39.844Z,26.47
2019-01-30T11:37:13.344Z,28.77
2019-01-30T11:39:46.852Z,26.77
2019-01-30T11:42:20.284Z,30.13
2019-01-30T11:44:54.047Z,26.87
2019-01-30T11:47:27.534Z,28.60
2019-01-30T11:50:01.201Z,27.57
2019-01-30T11:52:34.596Z,27.33
2019-01-30T11:55:08.353Z,28.13
2019-01-30T11:57:44.312Z,28.87
2019-01-30T12:00:26.349Z,29.40
2019-01-30T12:03:00.099Z,28.27
2019-01-30T12:05:34.136Z,33.67
2019-01-30T12:08:08.276Z,28.87
2019-01-30T12:10:41.611Z,30.67
2019-01-30T12:13:22.577Z,33.43
2019-01-30T12:15:55.995Z,31.87
2019-01-30T12:18:29.388Z,30.60
2019-01-30T12:21:02.843Z,30.73
2019-01-30T12:23:36.211Z,32.07
2019-01-30T12:26:10.260Z,29.87
2019-01-30T12:28:51.671Z,29.40
2019-01-30T12:31:25.559Z,30.60
2019-01-30T12:33:59.725Z,29.80
2019-01-30T12:36:33.572Z,31.50
2019-01-30T12:39:17.342Z,30.20
2019-01-30T12:41:51.340Z,29.13
2019-01-30T12:44:25.189Z,31.00
2019-01-30T12:46:59.130Z,28.90
2019-01-30T12:49:32.603Z,29.43
2019-01-30T12:52:19.243Z,30.33
2019-01-30T12:54:59.155Z,31.03
2019-01-30T12:57:36.095Z,31.00
2019-01-30T13:00:19.154Z,28.63
2019-01-30T13:02:52.781Z,31.23
2019-01-30T13:05:33.602Z,28.43
2019-01-30T13:08:06.945Z,31.23
2019-01-30T13:10:48.286Z,30.33
2019-01-30T13:13:23.954Z,29.83
2019-01-30T13:16:04.367Z,28.70
2019-01-30T13:18:38.211Z,30.80
2019-01-30T13:21:22.650Z,30.20
2019-01-30T13:23:56.732Z,31.07
2019-01-30T13:26:30.291Z,27.70
2019-01-30T13:29:48.205Z,26.77
2019-01-30T13:32:28.515Z,27.97
2019-01-30T13:35:02.340Z,27.47
2019-01-30T13:37:36.205Z,28.17
2019-01-30T13:40:13.199Z,29.10
2019-01-30T13:42:46.815Z,27.17
2019-01-30T13:45:20.202Z,26.73
2019-01-30T13:47:53.830Z,27.30
2019-01-30T13:50:28.645Z,26.63
2019-01-30T13:53:09.428Z,25.07
2019-01-30T13:55:44.369Z,26.17
2019-01-30T13:58:27.378Z,24.73
2019-01-30T14:01:00.912Z,21.60
2019-01-30T14:03:40.895Z,21.17
2019-01-30T14:06:14.660Z,24.03
2019-01-30T14:08:48.404Z,22.37
2019-01-30T14:11:22.063Z,26.10
2019-01-30T14:13:56.060Z,24.93
2019-01-30T14:16:29.755Z,22.97
2019-01-30T14:19:03.247Z,22.23
2019-01-30T14:21:36.585Z,22.93
2019-01-30T14:24:16.951Z,20.03
2019-01-30T14:26:52.902Z,18.00
2019-01-30T14:29:33.739Z,16.77
2019-01-30T14:32:25.794Z,19.43
2019-01-30T14:35:10.828Z,22.30
2019-01-30T14:37:44.209Z,18.33
2019-01-30T14:40:26.925Z,18.50
2019-01-30T14:43:03.015Z,22.93
2019-01-30T14:45:44.534Z,19.43
2019-01-30T14:48:24.084Z,18.03
2019-01-30T14:51:05.214Z,18.67
2019-01-30T14:53:39.301Z,18.63
2019-01-30T14:56:15.370Z,19.73
2019-01-30T14:58:49.390Z,16.93
2019-01-30T15:01:23.515Z,21.60
2019-01-30T15:04:02.869Z,17.00
2019-01-30T15:06:55.927Z,19.47
2019-01-30T15:09:38.351Z,16.53
2019-01-30T15:12:19.210Z,15.60
2019-01-30T15:14:53.540Z,15.27
2019-01-30T15:17:30.935Z,14.97
2019-01-30T15:20:04.347Z,15.50
2019-01-30T15:22:45.352Z,17.70
2019-01-30T15:25:20.814Z,15.27
2019-01-30T15:27:55.957Z,19.83
2019-01-30T15:30:40.565Z,14.17
2019-01-30T15:33:17.213Z,19.43
2019-01-30T15:35:52.161Z,14.30
2019-01-30T15:38:26.787Z,16.57
2019-01-30T15:41:00.451Z,14.40
2019-01-30T15:43:45.421Z,13.53
2019-01-30T15:46:20.663Z,11.77
2019-01-30T15:49:06.438Z,11.57
2019-01-30T15:51:40.237Z,13.43
2019-01-30T15:54:20.652Z,12.57
2019-01-30T15:56:55.532Z,12.30
2019-01-30T15:59:30.054Z,15.10
2019-01-30T16:02:04.795Z,12.60
2019-01-30T16:04:47.389Z,14.20
2019-01-30T16:07:23.282Z,15.57
2019-01-30T16:10:05.776Z,11.90
2019-01-30T16:12:39.596Z,13.30
2019-01-30T16:15:18.067Z,13.13
2019-01-30T16:17:51.444Z,14.40
2019-01-30T16:20:24.892Z,14.40
2019-01-30T16:23:04.514Z,21.40
2019-01-30T16:25:45.034Z,12.33
2019-01-30T16:28:18.592Z,16.07
2019-01-30T16:30:52.478Z,13.53
2019-01-30T16:33:28.949Z,15.10
2019-01-30T16:36:02.383Z,15.47
2019-01-30T16:38:35.705Z,14.30
2019-01-30T16:41:09.090Z,14.60
2019-01-30T16:43:42.475Z,13.47
2019-01-30T16:46:23.382Z,13.53
2019-01-30T16:48:57.237Z,15.40
2019-01-30T16:51:45.132Z,11.20
2019-01-30T16:54:19.613Z,12.60
2019-01-30T16:56:53.604Z,12.97
2019-01-30T16:59:27.414Z,13.80
2019-01-30T17:02:02.320Z,11.73
2019-01-30T17:04:36.525Z,12.30
2019-01-30T17:07:10.064Z,12.47
2019-01-30T17:09:43.534Z,11.90
2019-01-30T17:12:23.922Z,13.33
2019-01-30T17:14:57.611Z,12.43
2019-01-30T17:17:31.124Z,13.63
2019-01-30T17:20:04.523Z,11.30
2019-01-30T17:22:46.385Z,12.77
2019-01-30T17:25:21.422Z,10.73
2019-01-30T17:27:54.905Z,12.07
2019-01-30T17:30:38.930Z,22.80
2019-01-30T17:33:22.234Z,12.97
2019-01-30T17:36:05.243Z,16.63
2019-01-30T17:38:38.876Z,13.60
2019-01-30T17:41:14.404Z,14.17
2019-01-30T17:43:50.516Z,12.60
2019-01-30T17:46:28.999Z,14.40
2019-01-30T17:49:03.842Z,12.60
2019-01-30T17:51:38.489Z,13.23
2019-01-30T17:54:19.002Z,16.10
2019-01-30T17:56:59.882Z,13.03
2019-01-30T17:59:34.004Z,12.20
2019-01-30T18:02:09.914Z,12.87
2019-01-30T18:04:48.965Z,14.10
2019-01-30T18:07:24.123Z,11.90
2019-01-30T18:09:58.819Z,12.53
2019-01-30T18:12:34.654Z,12.73
2019-01-30T18:15:10.168Z,12.87
2019-01-30T18:17:44.841Z,12.03
2019-01-30T18:20:31.605Z,26.03
2019-01-30T18:23:05.598Z,13.30
2019-01-30T18:25:39.741Z,11.60
2019-01-30T18:28:13.222Z,16.50
2019-01-30T18:30:47.212Z,13.83
2019-01-30T18:33:21.123Z,11.83
2019-01-30T18:36:02.505Z,11.80
2019-01-30T18:38:36.445Z,15.03
2019-01-30T18:41:12.275Z,11.57
2019-01-30T18:43:48.432Z,13.87
2019-01-30T18:46:22.260Z,11.57
2019-01-30T18:48:56.473Z,14.07
2019-01-30T18:51:36.641Z,12.33
2019-01-30T18:54:10.424Z,14.00
2019-01-30T18:56:44.722Z,13.67
2019-01-30T18:59:33.742Z,12.70
2019-01-30T19:02:07.183Z,13.50
2019-01-30T19:04:41.125Z,12.17
2019-01-30T19:07:15.511Z,13.13
2019-01-30T19:09:49.572Z,18.63
2019-01-30T19:12:23.092Z,16.83
2019-01-30T19:14:57.308Z,15.13
2019-01-30T19:17:53.870Z,13.97
2019-01-30T19:20:32.439Z,17.50
2019-01-30T19:23:06.886Z,11.70
2019-01-30T19:25:40.136Z,14.87
2019-01-30T19:28:16.090Z,17.73
2019-01-30T19:30:48.668Z,13.83
2019-01-30T19:33:30.612Z,14.03
2019-01-30T19:36:03.769Z,15.13
2019-01-30T19:38:44.290Z,15.70
2019-01-30T19:41:19.403Z,13.50
2019-01-30T19:43:52.972Z,16.23
2019-01-30T19:46:25.719Z,15.00
2019-01-30T19:49:06.170Z,12.60
2019-01-30T19:51:39.225Z,12.77
2019-01-30T19:54:12.495Z,12.33
2019-01-30T19:56:45.550Z,15.90
2019-01-30T19:59:20.101Z,16.73
2019-01-30T20:01:53.451Z,12.60
2019-01-30T20:04:33.035Z,14.60
2019-01-30T20:07:14.518Z,12.77
2019-01-30T20:09:40.914Z,16.13
2019-01-30T20:12:13.696Z,13.00
2019-01-30T20:14:47.728Z,14.63
2019-01-30T20:17:20.448Z,14.07
2019-01-30T20:19:54.251Z,14.63
2019-01-30T20:22:32.113Z,16.70
2019-01-30T20:25:05.998Z,14.50
2019-01-30T20:27:40.001Z,14.13
2019-01-30T20:30:23.819Z,15.87
2019-01-30T20:33:00.201Z,16.77
2019-01-30T20:35:40.521Z,12.33
2019-01-30T20:38:13.226Z,12.80
2019-01-30T20:40:46.501Z,15.37
2019-01-30T20:43:19.981Z,13.10
2019-01-30T20:46:01.139Z,13.20
2019-01-30T20:48:45.183Z,13.83
2019-01-30T20:51:15.080Z,14.63
2019-01-30T20:53:49.211Z,13.20
2019-01-30T20:56:22.623Z,17.27
2019-01-30T20:58:56.410Z,12.47
2019-01-30T21:01:37.850Z,12.73
2019-01-30T21:04:10.944Z,14.03
2019-01-30T21:06:44.010Z,15.43
2019-01-30T21:09:17.368Z,14.97
2019-01-30T21:11:50.149Z,13.97
2019-01-30T21:14:23.194Z,12.00
2019-01-30T21:16:56.509Z,15.27
2019-01-30T21:19:29.166Z,12.90
2019-01-30T21:22:09.319Z,15.43
2019-01-30T21:24:42.249Z,14.23
2019-01-30T21:27:16.322Z,14.30
2019-01-30T21:29:49.674Z,14.00
2019-01-30T21:32:29.169Z,14.27
2019-01-30T21:35:05.541Z,14.73
2019-01-30T21:37:48.578Z,12.67
2019-01-30T21:40:15.239Z,15.27
2019-01-30T21:42:55.244Z,14.67
2019-01-30T21:45:28.537Z,14.53
2019-01-30T21:48:07.877Z,12.67
2019-01-30T21:50:40.802Z,20.17
2019-01-30T21:53:20.489Z,13.60
2019-01-30T21:55:54.066Z,12.37
2019-01-30T21:58:33.944Z,12.13
2019-01-30T22:01:07.747Z,12.17
2019-01-30T22:03:47.446Z,12.03
2019-01-30T22:06:20.645Z,14.30
2019-01-30T22:09:00.535Z,12.37
2019-01-30T22:11:33.648Z,12.30
2019-01-30T22:14:06.973Z,12.80
2019-01-30T22:16:40.180Z,12.03
2019-01-30T22:19:15.390Z,12.00
2019-01-30T22:21:51.469Z,11.67
2019-01-30T22:24:24.794Z,13.83
2019-01-30T22:26:58.353Z,13.00
2019-01-30T22:29:31.454Z,12.63
2019-01-30T22:32:04.622Z,11.70
2019-01-30T22:34:37.896Z,12.50
2019-01-30T22:37:11.273Z,12.37
2019-01-30T22:39:44.426Z,13.20
2019-01-30T22:42:17.645Z,12.80
2019-01-30T22:45:07.880Z,15.17
2019-01-30T22:47:42.630Z,13.27
2019-01-30T22:50:22.757Z,11.23
2019-01-30T22:52:56.152Z,11.37
2019-01-30T22:55:29.542Z,11.10
2019-01-30T22:58:02.756Z,11.87
2019-01-30T23:01:14.144Z,10.43
2019-01-30T23:03:54.398Z,12.53
2019-01-30T23:06:58.746Z,10.57
2019-01-30T23:10:06.147Z,12.90
2019-01-30T23:13:21.194Z,11.50
2019-01-30T23:16:19.228Z,11.00
2019-01-30T23:19:22.869Z,11.17
2019-01-30T23:22:28.332Z,9.93
2019-01-30T23:25:55.764Z,9.83
2019-01-30T23:29:06.973Z,9.87
2019-01-30T23:32:04.030Z,8.70
2019-01-30T23:35:13.438Z,10.37
2019-01-30T23:38:34.033Z,13.00
2019-01-30T23:41:41.016Z,10.47
2019-01-30T23:44:38.923Z,11.60
2019-01-30T23:47:50.522Z,10.07
2019-01-30T23:51:04.464Z,9.90
2019-01-30T23:53:59.054Z,9.73
2019-01-30T23:56:51.316Z,8.30
2019-01-30T23:59:49.288Z,9.40
